Siletz, OR

7:11 PM PDT on August 29, 2015 (GMT -0700)
Siletz | | Change Station
CLOSE
Current Station
Personal Weather Station
Location: Siletz, OR
Elevation: 256 ft
Nearby Weather Stations

Elev 256 ft 44.73 °N, 123.91 °W | Updated 30 seconds ago

Overcast
Overcast
66.4 °F
Feels Like 66.4 °F
N
6.9
Wind Variable Wind from SSW
Gusts 9.8 mph

Today
High -- | Low -- °F
--% Chance of Precip.
Yesterday
High -- | Low -- °F
Precip. -- in
6:34 AM 7:58 PM
Full, 100% visible
Pressure 29.88 in
Visibility 10.0 miles
Clouds Scattered Clouds 600 ft
Mostly Cloudy 12000 ft
Dew Point 58 °F
Humidity 75%
Rainfall 0.22 in
Snow Depth Not available.
UV 0 out of 12
Pollen .50 out of 12
Air Quality Not available.
Flu Activity Not available.
METAR KONP 300155Z AUTO 19019G35KT 10SM SCT006 BKN120 17/15 A2988 RMK AO2
Pressure 29.88 in
Visibility 10.0 miles
Clouds Scattered Clouds 600 ft
Mostly Cloudy 12000 ft
Dew Point 58 °F
Humidity 75%
Rainfall 0.22 in
Snow Depth Not available.
UV 0 out of 12
Pollen .50 out of 12
Air Quality Not available.
Flu Activity Not available.
METAR KONP 300155Z AUTO 19019G35KT 10SM SCT006 BKN120 17/15 A2988 RMK AO2

10-Day Weather Forecast

×

Almanac

Astronomy

Aug. 29, 2015 Rise Set
Actual Time
Civil Twilight
Nautical Twilight
Astronomical Twilight
Moon
Length of Visible Light
Length of Day
Tomorrow will be .
, % of the Moon is Illuminated

Today's Extremes

State Highs State Lows

Community

WunderPhotos

Upload Photos

1,850,849 photos uploaded!

WunderBlogs® & News

Nearby

Air Quality

  Air Quality AQ Index Pollutant
Not available.

Snow Depth

Station Depth Elevation

Earthquake Activity

City Distance Mag. Time & Date
Minimum magnitude displayed is 2.5.

Coastal Water Temperatures

Place Temperature

Stations

Nearby Weather Stations

Station Location Temp. Windchill Dew Point Humidity Wind Precip. Elev Updated Type